createdAt,value
2017-06-12T00:01:50.570Z,1001.24
2017-06-12T00:04:15.071Z,1001.23
2017-06-12T00:06:31.098Z,1001.19
2017-06-12T00:08:55.648Z,1001.2
2017-06-12T00:11:20.239Z,1001.22
2017-06-12T00:13:44.840Z,1001.23
2017-06-12T00:16:00.927Z,1001.18
2017-06-12T00:18:25.410Z,1001.14
2017-06-12T00:20:41.521Z,1001.18
2017-06-12T00:23:06.007Z,1001.2
2017-06-12T00:25:07.600Z,1001.16
2017-06-12T00:27:15.290Z,1001.15
2017-06-12T00:29:39.845Z,1001.13
2017-06-12T00:32:04.329Z,1001.04
2017-06-12T00:34:20.361Z,1001.1
2017-06-12T00:36:36.421Z,1001.04
2017-06-12T00:39:00.913Z,1001.02
2017-06-12T00:41:25.412Z,1000.98
2017-06-12T00:43:49.904Z,1000.99
2017-06-12T00:46:14.399Z,1001
2017-06-12T00:48:30.424Z,1001.02
2017-06-12T00:50:54.989Z,1000.95
2017-06-12T00:53:19.466Z,1001.02
2017-06-12T00:55:20.949Z,1001.01
2017-06-12T00:57:45.513Z,1000.95
2017-06-12T01:00:10.007Z,1000.93
2017-06-12T01:02:11.482Z,1000.94
2017-06-12T01:04:36.048Z,1001
2017-06-12T01:06:52.033Z,1000.98
2017-06-12T01:09:08.025Z,1000.92
2017-06-12T01:11:18.080Z,1000.92
2017-06-12T01:13:34.070Z,1000.95
2017-06-12T01:15:58.557Z,1000.97
2017-06-12T01:18:22.955Z,1000.91
2017-06-12T01:20:47.343Z,1000.93
2017-06-12T01:23:11.717Z,1000.91
2017-06-12T01:25:27.759Z,1000.9
2017-06-12T01:27:43.803Z,1000.9
2017-06-12T01:30:08.306Z,1000.9
2017-06-12T01:32:32.803Z,1000.8
2017-06-12T01:34:57.285Z,1000.83
2017-06-12T01:37:21.780Z,1000.88
2017-06-12T01:39:46.274Z,1000.89
2017-06-12T01:42:10.771Z,1000.86
2017-06-12T01:44:35.265Z,1000.84
2017-06-12T01:46:59.748Z,1000.91
2017-06-12T01:49:24.246Z,1000.95
2017-06-12T01:51:48.770Z,1000.96
2017-06-12T01:54:13.229Z,1000.94
2017-06-12T01:56:37.723Z,1001.01
2017-06-12T01:58:39.201Z,1001.03
2017-06-12T02:01:03.672Z,1001.03
2017-06-12T02:03:28.158Z,1001.06
2017-06-12T02:05:52.637Z,1001.12
2017-06-12T02:08:08.686Z,1001.11
2017-06-12T02:10:33.137Z,1001.04
2017-06-12T02:12:49.121Z,1001.04
2017-06-12T02:15:13.616Z,1001.1
2017-06-12T02:17:38.126Z,1001.08
2017-06-12T02:19:48.152Z,1001.13
2017-06-12T02:22:12.656Z,1001.1
2017-06-12T02:24:37.144Z,1001.12
2017-06-12T02:26:53.140Z,1001.1
2017-06-12T02:29:09.227Z,1001.13
2017-06-12T02:31:33.719Z,1001.16
2017-06-12T02:33:58.211Z,1001.08
2017-06-12T02:36:22.714Z,1001.03
2017-06-12T02:38:47.197Z,1001.02
2017-06-12T02:41:03.187Z,1001.04
2017-06-12T02:43:27.678Z,1001.08
2017-06-12T02:45:52.169Z,1001.06
2017-06-12T02:48:16.669Z,1001.04
2017-06-12T02:50:41.158Z,1001.13
2017-06-12T02:53:05.652Z,1001.17
2017-06-12T02:55:30.139Z,1001.14
2017-06-12T02:57:54.636Z,1001.26
2017-06-12T03:00:10.666Z,1001.33
2017-06-12T03:02:35.914Z,1001.4
2017-06-12T03:04:51.959Z,1001.42
2017-06-12T03:07:08.064Z,1001.47
2017-06-12T03:09:32.510Z,1001.47
2017-06-12T03:11:34.507Z,1001.42
2017-06-12T03:13:59.058Z,1001.46
2017-06-12T03:16:23.567Z,1001.52
2017-06-12T03:18:48.048Z,1001.53
2017-06-12T03:21:12.539Z,1001.52
2017-06-12T03:23:28.531Z,1001.51
2017-06-12T03:25:53.025Z,1001.54
2017-06-12T03:28:17.518Z,1001.47
2017-06-12T03:30:42.005Z,1001.46
2017-06-12T03:33:06.500Z,1001.43
2017-06-12T03:35:30.989Z,1001.48
2017-06-12T03:37:55.473Z,1001.52
2017-06-12T03:40:03.017Z,1001.54
2017-06-12T03:42:27.461Z,1001.52
2017-06-12T03:44:51.952Z,1001.53
2017-06-12T03:47:16.448Z,1001.58
2017-06-12T03:49:40.938Z,1001.59
2017-06-12T03:52:05.428Z,1001.61
2017-06-12T03:54:29.919Z,1001.61
2017-06-12T03:56:45.913Z,1001.62
2017-06-12T03:59:01.901Z,1001.67
2017-06-12T04:01:26.402Z,1001.6
2017-06-12T04:03:42.393Z,1001.58
2017-06-12T04:06:06.880Z,1001.62
2017-06-12T04:08:22.917Z,1001.62
2017-06-12T04:10:47.471Z,1001.67
2017-06-12T04:13:11.963Z,1001.74
2017-06-12T04:15:36.446Z,1001.78
2017-06-12T04:17:37.922Z,1001.81
2017-06-12T04:19:54.037Z,1001.78
2017-06-12T04:22:01.630Z,1001.8
2017-06-12T04:24:26.071Z,1001.81
2017-06-12T04:26:50.578Z,1001.77
2017-06-12T04:29:15.071Z,1001.77
2017-06-12T04:31:39.561Z,1001.75
2017-06-12T04:34:04.047Z,1001.81
2017-06-12T04:36:28.547Z,1001.87
2017-06-12T04:38:30.546Z,1001.89
2017-06-12T04:40:55.002Z,1001.9
2017-06-12T04:43:19.497Z,1001.92
2017-06-12T04:45:43.988Z,1001.94
2017-06-12T04:48:08.475Z,1001.93
2017-06-12T04:50:32.969Z,1001.98
2017-06-12T04:52:34.545Z,1001.99
2017-06-12T04:54:50.553Z,1001.94
2017-06-12T04:57:15.004Z,1001.86
2017-06-12T04:59:16.507Z,1001.91
2017-06-12T05:01:32.543Z,1002.04
2017-06-12T05:03:48.576Z,1002.14
2017-06-12T05:06:04.584Z,1002.14
2017-06-12T05:08:29.148Z,1002.1
2017-06-12T05:10:45.271Z,1001.99
2017-06-12T05:13:09.939Z,1001.93
2017-06-12T05:15:26.069Z,1002
2017-06-12T05:17:50.723Z,1002.02
2017-06-12T05:20:15.323Z,1001.93
2017-06-12T05:22:39.922Z,1001.97
2017-06-12T05:25:04.503Z,1001.98
2017-06-12T05:27:29.110Z,1001.93
2017-06-12T05:29:53.695Z,1002.01
2017-06-12T05:32:18.286Z,1002.05
2017-06-12T05:34:34.407Z,1002.03
2017-06-12T05:36:58.972Z,1002.06
2017-06-12T05:39:23.569Z,1002.06
2017-06-12T05:41:48.163Z,1002.12
2017-06-12T05:44:12.759Z,1002.11
2017-06-12T05:46:28.896Z,1002.19
2017-06-12T05:48:53.560Z,1002.38
2017-06-12T05:51:18.275Z,1002.39
2017-06-12T05:56:07.994Z,1002.4
2017-06-12T05:58:18.637Z,1002.36
2017-06-12T06:00:34.969Z,1002.35
2017-06-12T06:02:59.874Z,1002.41
2017-06-12T06:05:24.536Z,1002.4
2017-06-12T06:07:49.329Z,1002.39
2017-06-12T06:10:14.133Z,1002.46
2017-06-12T06:12:38.923Z,1002.49
2017-06-12T06:14:55.131Z,1002.55
2017-06-12T06:17:11.354Z,1002.52
2017-06-12T06:19:27.543Z,1002.53
2017-06-12T06:21:43.735Z,1002.53
2017-06-12T06:24:08.417Z,1002.59
2017-06-12T06:26:33.100Z,1002.62
2017-06-12T06:28:57.692Z,1002.71
2017-06-12T06:31:13.925Z,1002.69
2017-06-12T06:33:30.119Z,1002.72
2017-06-12T06:35:40.712Z,1002.78
2017-06-12T06:38:05.456Z,1002.86
2017-06-12T06:40:30.160Z,1002.88
2017-06-12T06:42:46.383Z,1002.93
2017-06-12T06:45:11.047Z,1002.94
2017-06-12T06:47:35.742Z,1002.93
2017-06-12T06:50:00.448Z,1002.98
2017-06-12T06:52:25.128Z,1002.97
2017-06-12T06:54:26.654Z,1003
2017-06-12T06:56:42.870Z,1003.04
2017-06-12T06:59:07.468Z,1003.04
2017-06-12T07:01:32.064Z,1003.08
2017-06-12T07:03:48.255Z,1003.1
2017-06-12T07:06:12.845Z,1003.13
2017-06-12T07:08:22.937Z,1003.15
2017-06-12T07:10:47.610Z,1003.18
2017-06-12T07:13:12.191Z,1003.26
2017-06-12T07:15:28.315Z,1003.28
2017-06-12T07:17:52.873Z,1003.3
2017-06-12T07:20:00.515Z,1003.34
2017-06-12T07:22:25.066Z,1003.41
2017-06-12T07:24:49.665Z,1003.41
2017-06-12T07:27:14.270Z,1003.4
2017-06-12T07:29:39.630Z,1003.4
2017-06-12T15:58:22.176Z,1003.87
2017-06-12T16:00:46.821Z,1003.82
2017-06-12T16:03:03.042Z,1003.78
2017-06-12T16:05:27.739Z,1003.79
2017-06-12T16:07:52.426Z,1003.79
2017-06-12T16:10:17.131Z,1003.87
2017-06-12T16:12:41.835Z,1003.88
2017-06-12T16:15:06.630Z,1003.83
2017-06-12T16:17:31.323Z,1003.84
2017-06-12T16:19:47.550Z,1003.83
2017-06-12T16:22:03.733Z,1003.87
2017-06-12T16:24:28.517Z,1003.91
2017-06-12T16:26:53.212Z,1003.86
2017-06-12T16:29:17.912Z,1003.91
2017-06-12T16:31:42.605Z,1003.85
2017-06-12T16:34:07.298Z,1003.82
2017-06-12T16:36:23.522Z,1003.83
2017-06-12T16:38:48.321Z,1003.89
2017-06-12T16:41:13.004Z,1003.88
2017-06-12T16:43:29.320Z,1003.84
2017-06-12T16:45:54.089Z,1003.75
2017-06-12T16:48:18.790Z,1003.75
2017-06-12T16:50:43.477Z,1003.75
2017-06-12T16:52:59.680Z,1003.74
2017-06-12T16:55:24.368Z,1003.78
2017-06-12T16:57:49.065Z,1003.74
2017-06-12T17:00:13.786Z,1003.77
2017-06-12T17:02:38.468Z,1003.76
2017-06-12T17:04:54.697Z,1003.79
2017-06-12T17:07:19.462Z,1003.78
2017-06-12T17:09:35.696Z,1003.79
2017-06-12T17:12:00.346Z,1003.79
2017-06-12T17:14:16.577Z,1003.8
2017-06-12T17:16:41.235Z,1003.82
2017-06-12T17:19:05.942Z,1003.82
2017-06-12T17:21:30.545Z,1003.87
2017-06-12T17:23:55.236Z,1003.86
2017-06-12T17:26:19.926Z,1003.81
2017-06-12T17:28:44.615Z,1003.83
2017-06-12T17:31:09.322Z,1003.84
2017-06-12T17:33:34.013Z,1003.91
2017-06-12T17:35:58.731Z,1003.95
2017-06-12T17:38:00.747Z,1003.93
2017-06-12T17:40:25.366Z,1003.93
2017-06-12T17:42:49.959Z,1003.94
2017-06-12T17:45:06.068Z,1003.88
2017-06-12T17:47:30.638Z,1003.95
2017-06-12T17:49:55.225Z,1003.95
2017-06-12T17:51:57.233Z,1003.95
2017-06-12T17:54:13.345Z,1003.97
2017-06-12T17:56:37.909Z,1003.96
2017-06-12T17:59:02.476Z,1004.03
2017-06-12T18:01:27.072Z,1004.04
2017-06-12T18:03:43.206Z,1004.07
2017-06-12T18:05:53.279Z,1004.14
2017-06-12T18:08:09.415Z,1004.12
2017-06-12T18:10:34.006Z,1004.08
2017-06-12T18:12:58.921Z,1004.12
2017-06-12T18:15:23.608Z,1004.11
2017-06-12T18:17:48.207Z,1004.08
2017-06-12T18:20:12.798Z,1004.15
2017-06-12T18:22:37.394Z,1004.14
2017-06-12T18:24:53.516Z,1004.12
2017-06-12T18:27:09.618Z,1004.09
2017-06-12T18:29:34.162Z,1004.09
2017-06-12T18:31:58.762Z,1004.07
2017-06-12T18:34:14.894Z,1004.07
2017-06-12T18:36:39.608Z,1004.07
2017-06-12T18:39:04.050Z,1004.09
2017-06-12T18:41:28.644Z,1004.05
2017-06-12T18:43:53.233Z,1004.05
2017-06-12T18:46:09.322Z,1004.08
2017-06-12T18:48:33.807Z,1004.1
2017-06-12T18:50:49.935Z,1004.11
2017-06-12T18:53:14.504Z,1004.14
2017-06-12T18:55:39.104Z,1004.12
2017-06-12T18:58:03.690Z,1004.17
2017-06-12T19:00:28.176Z,1004.12
2017-06-12T19:02:44.219Z,1004.14
2017-06-12T19:05:08.758Z,1004.13
2017-06-12T19:07:33.272Z,1004.16
2017-06-12T19:09:57.751Z,1004.21
2017-06-12T19:12:22.125Z,1004.23
2017-06-12T19:14:46.625Z,1004.24
2017-06-12T19:17:02.672Z,1004.23
2017-06-12T19:19:27.102Z,1004.23
2017-06-12T19:21:43.094Z,1004.26
2017-06-12T19:24:07.596Z,1004.31
2017-06-12T19:26:31.980Z,1004.34
2017-06-12T19:28:56.464Z,1004.37
2017-06-12T19:31:12.464Z,1004.32
2017-06-12T19:33:36.963Z,1004.39
2017-06-12T19:35:52.974Z,1004.38
2017-06-12T19:38:08.966Z,1004.43
2017-06-12T19:40:33.412Z,1004.47
2017-06-12T19:42:57.835Z,1004.54
2017-06-12T19:45:22.188Z,1004.55
2017-06-12T19:47:46.598Z,1004.58
2017-06-12T19:50:11.003Z,1004.59
2017-06-12T19:52:35.380Z,1004.59
2017-06-12T19:54:51.360Z,1004.66
2017-06-12T19:57:15.736Z,1004.66
2017-06-12T19:59:40.146Z,1004.73
2017-06-12T20:01:50.656Z,1004.76
2017-06-12T20:04:15.089Z,1004.75
2017-06-12T20:06:39.390Z,1004.77
2017-06-12T20:09:03.768Z,1004.77
2017-06-12T20:11:28.161Z,1004.76
2017-06-12T20:13:52.541Z,1004.77
2017-06-12T20:16:08.481Z,1004.79
2017-06-12T20:18:32.807Z,1004.8
2017-06-12T20:20:57.220Z,1004.81
2017-06-12T20:23:13.071Z,1004.77
2017-06-12T20:25:37.379Z,1004.79
2017-06-12T20:27:39.615Z,1004.8
2017-06-12T20:30:04.055Z,1004.8
2017-06-12T20:32:28.437Z,1004.79
2017-06-12T20:34:55.487Z,1004.8
2017-06-12T20:37:21.710Z,1004.8
2017-06-12T20:39:46.096Z,1004.86
2017-06-12T20:42:01.942Z,1004.83
2017-06-12T20:44:26.276Z,1004.89
2017-06-12T20:46:50.564Z,1004.82
2017-06-12T20:49:14.840Z,1004.75
2017-06-12T20:51:39.129Z,1004.75
2017-06-12T20:54:03.528Z,1004.71
2017-06-12T20:56:19.413Z,1004.69
2017-06-12T20:58:43.760Z,1004.68
2017-06-12T21:01:07.994Z,1004.69
2017-06-12T21:03:32.265Z,1004.7
2017-06-12T21:05:56.550Z,1004.72
2017-06-12T21:08:12.389Z,1004.68
2017-06-12T21:10:28.184Z,1004.74
2017-06-12T21:12:44.032Z,1004.74
2017-06-12T21:14:51.449Z,1004.69
2017-06-12T21:17:15.692Z,1004.71
2017-06-12T21:19:39.983Z,1004.75
2017-06-12T21:22:04.260Z,1004.76
2017-06-12T21:24:28.559Z,1004.8
2017-06-12T21:26:52.843Z,1004.86
2017-06-12T21:29:02.830Z,1004.88
2017-06-12T21:31:27.176Z,1004.91
2017-06-12T21:33:51.466Z,1004.95
2017-06-12T21:36:15.754Z,1005.01
2017-06-12T21:38:40.034Z,1004.98
2017-06-12T21:41:04.327Z,1005.03
2017-06-12T21:43:28.606Z,1005.01
2017-06-12T21:45:44.459Z,1005.02
2017-06-12T21:47:45.882Z,1005.03
2017-06-12T21:50:10.136Z,1005.09
2017-06-12T21:52:34.420Z,1005.18
2017-06-12T21:54:58.609Z,1005.19
2017-06-12T21:57:22.895Z,1005.2
2017-06-12T21:59:47.071Z,1005.2
2017-06-12T22:02:02.815Z,1005.28
2017-06-12T22:04:26.938Z,1005.25
2017-06-12T22:06:51.122Z,1005.24
2017-06-12T22:09:15.308Z,1005.26
2017-06-12T22:11:39.503Z,1005.29
2017-06-12T22:14:03.616Z,1005.32
2017-06-12T22:16:27.857Z,1005.3
2017-06-12T22:18:52.038Z,1005.35
2017-06-12T22:21:16.219Z,1005.42
2017-06-12T22:23:40.416Z,1005.42
2017-06-12T22:26:04.596Z,1005.43
2017-06-12T22:28:20.281Z,1005.47
2017-06-12T22:30:35.954Z,1005.49
2017-06-12T22:33:00.185Z,1005.5
2017-06-12T22:35:24.301Z,1005.56
2017-06-12T22:37:48.527Z,1005.58
2017-06-12T22:40:12.687Z,1005.57
2017-06-12T22:42:36.888Z,1005.61
2017-06-12T22:45:01.064Z,1005.59
2017-06-12T22:47:25.241Z,1005.64
2017-06-12T22:49:40.990Z,1005.64
2017-06-12T22:52:05.118Z,1005.6
2017-06-12T22:54:29.301Z,1005.6
2017-06-12T22:56:53.381Z,1005.65
2017-06-12T22:59:03.298Z,1005.67
2017-06-12T23:01:27.531Z,1005.67
2017-06-12T23:03:51.701Z,1005.7
2017-06-12T23:05:44.650Z,1005.73
2017-06-12T23:07:54.541Z,1005.77
2017-06-12T23:10:10.284Z,1005.78
2017-06-12T23:12:26.036Z,1005.81
2017-06-12T23:14:50.156Z,1005.87
2017-06-12T23:17:14.235Z,1005.8
2017-06-12T23:19:38.431Z,1005.82
2017-06-12T23:21:54.165Z,1005.87
2017-06-12T23:24:18.292Z,1005.87
2017-06-12T23:26:42.477Z,1005.87
2017-06-12T23:29:06.657Z,1005.83
2017-06-12T23:31:30.741Z,1005.84
2017-06-12T23:33:46.424Z,1005.81
2017-06-12T23:36:10.625Z,1005.85
2017-06-12T23:38:20.595Z,1005.85
2017-06-12T23:40:44.753Z,1005.85
2017-06-12T23:43:00.504Z,1005.82
2017-06-12T23:45:24.624Z,1005.85
2017-06-12T23:47:48.789Z,1005.89
2017-06-12T23:50:04.462Z,1005.93
2017-06-12T23:52:20.238Z,1005.96
2017-06-12T23:54:35.923Z,1006.02
2017-06-12T23:57:00.041Z,1006.03
2017-06-12T23:59:15.674Z,1006.04
